sensor_id;sensor_type;location;lat;lon;timestamp;pressure;altitude;pressure_sealevel;temperature;humidity
48926;BME280;39838;59.938;30.642;2023-05-21T00:00:37;102153.47;;;12.83;42.28
48926;BME280;39838;59.938;30.642;2023-05-21T00:03:04;102143.78;;;12.74;42.49
48926;BME280;39838;59.938;30.642;2023-05-21T00:05:38;102150.53;;;12.65;42.47
48926;BME280;39838;59.938;30.642;2023-05-21T00:08:07;102149.56;;;12.60;42.78
48926;BME280;39838;59.938;30.642;2023-05-21T00:10:35;102142.56;;;12.54;43.06
48926;BME280;39838;59.938;30.642;2023-05-21T00:13:02;102152.88;;;12.49;43.53
48926;BME280;39838;59.938;30.642;2023-05-21T00:15:29;102149.31;;;12.44;43.62
48926;BME280;39838;59.938;30.642;2023-05-21T00:17:57;102143.09;;;12.38;44.05
48926;BME280;39838;59.938;30.642;2023-05-21T00:20:24;102152.59;;;12.34;44.23
48926;BME280;39838;59.938;30.642;2023-05-21T00:22:54;102147.28;;;12.28;44.43
48926;BME280;39838;59.938;30.642;2023-05-21T00:25:22;102145.44;;;12.24;44.65
48926;BME280;39838;59.938;30.642;2023-05-21T00:27:50;102154.13;;;12.23;45.25
48926;BME280;39838;59.938;30.642;2023-05-21T00:30:17;102154.03;;;12.18;45.39
48926;BME280;39838;59.938;30.642;2023-05-21T00:32:44;102160.91;;;12.15;45.37
48926;BME280;39838;59.938;30.642;2023-05-21T00:35:12;102156.31;;;12.03;46.12
48926;BME280;39838;59.938;30.642;2023-05-21T00:37:39;102165.03;;;12.03;46.64
48926;BME280;39838;59.938;30.642;2023-05-21T00:40:08;102168.38;;;11.98;47.62
48926;BME280;39838;59.938;30.642;2023-05-21T00:42:38;102163.09;;;11.93;47.95
48926;BME280;39838;59.938;30.642;2023-05-21T00:45:06;102160.34;;;11.87;47.89
48926;BME280;39838;59.938;30.642;2023-05-21T00:47:34;102161.09;;;11.82;49.14
48926;BME280;39838;59.938;30.642;2023-05-21T00:50:02;102160.09;;;11.76;49.09
48926;BME280;39838;59.938;30.642;2023-05-21T00:52:31;102163.47;;;11.72;49.67
48926;BME280;39838;59.938;30.642;2023-05-21T00:55:07;102154.72;;;11.69;50.24
48926;BME280;39838;59.938;30.642;2023-05-21T00:57:35;102159.81;;;11.64;50.57
48926;BME280;39838;59.938;30.642;2023-05-21T01:00:05;102164.09;;;11.61;50.93
48926;BME280;39838;59.938;30.642;2023-05-21T01:02:34;102160.50;;;11.56;51.91
48926;BME280;39838;59.938;30.642;2023-05-21T01:05:03;102160.53;;;11.57;52.43
48926;BME280;39838;59.938;30.642;2023-05-21T01:07:32;102160.53;;;11.57;52.99
48926;BME280;39838;59.938;30.642;2023-05-21T01:10:02;102138.50;;;11.41;53.71
48926;BME280;39838;59.938;30.642;2023-05-21T01:12:31;102113.78;;;11.24;53.47
48926;BME280;39838;59.938;30.642;2023-05-21T01:14:59;102169.03;;;11.50;54.09
48926;BME280;39838;59.938;30.642;2023-05-21T01:17:34;102158.56;;;11.47;54.47
48926;BME280;39838;59.938;30.642;2023-05-21T01:20:04;102159.44;;;11.46;54.99
48926;BME280;39838;59.938;30.642;2023-05-21T01:22:37;102155.81;;;11.41;55.44
48926;BME280;39838;59.938;30.642;2023-05-21T01:25:10;102161.09;;;11.44;55.46
48926;BME280;39838;59.938;30.642;2023-05-21T01:27:37;102157.63;;;11.43;55.91
48926;BME280;39838;59.938;30.642;2023-05-21T01:30:06;102160.19;;;11.42;56.06
48926;BME280;39838;59.938;30.642;2023-05-21T01:32:39;102167.97;;;11.40;56.40
48926;BME280;39838;59.938;30.642;2023-05-21T01:35:10;102158.41;;;11.39;56.68
48926;BME280;39838;59.938;30.642;2023-05-21T01:37:45;102148.75;;;11.35;56.75
48926;BME280;39838;59.938;30.642;2023-05-21T01:40:23;102152.31;;;11.39;57.06
48926;BME280;39838;59.938;30.642;2023-05-21T01:42:52;102155.00;;;11.43;57.71
48926;BME280;39838;59.938;30.642;2023-05-21T01:45:21;102126.94;;;11.30;57.97
48926;BME280;39838;59.938;30.642;2023-05-21T01:47:50;102155.16;;;11.49;58.41
48926;BME280;39838;59.938;30.642;2023-05-21T01:50:21;102154.38;;;11.52;58.63
48926;BME280;39838;59.938;30.642;2023-05-21T01:52:50;102153.53;;;11.55;59.07
48926;BME280;39838;59.938;30.642;2023-05-21T01:55:19;102152.69;;;11.56;58.79
48926;BME280;39838;59.938;30.642;2023-05-21T01:57:49;102154.53;;;11.60;58.99
48926;BME280;39838;59.938;30.642;2023-05-21T02:00:18;102151.09;;;11.62;58.97
48926;BME280;39838;59.938;30.642;2023-05-21T02:02:45;102135.44;;;11.59;58.98
48926;BME280;39838;59.938;30.642;2023-05-21T02:05:13;102152.09;;;11.67;59.25
48926;BME280;39838;59.938;30.642;2023-05-21T02:07:40;102153.06;;;11.72;59.29
48926;BME280;39838;59.938;30.642;2023-05-21T02:10:09;102153.16;;;11.77;59.96
48926;BME280;39838;59.938;30.642;2023-05-21T02:12:38;102154.16;;;11.82;59.73
48926;BME280;39838;59.938;30.642;2023-05-21T02:15:06;102154.28;;;11.87;59.53
48926;BME280;39838;59.938;30.642;2023-05-21T02:17:34;102153.41;;;11.86;59.76
48926;BME280;39838;59.938;30.642;2023-05-21T02:20:04;102156.13;;;11.92;59.93
48926;BME280;39838;59.938;30.642;2023-05-21T02:22:36;102154.44;;;11.94;59.92
48926;BME280;39838;59.938;30.642;2023-05-21T02:25:05;102155.31;;;11.96;59.80
48926;BME280;39838;59.938;30.642;2023-05-21T02:27:33;102153.63;;;11.98;59.86
48926;BME280;39838;59.938;30.642;2023-05-21T02:30:04;102154.56;;;12.00;59.32
48926;BME280;39838;59.938;30.642;2023-05-21T02:32:32;102154.63;;;12.05;59.68
48926;BME280;39838;59.938;30.642;2023-05-21T02:34:59;102148.63;;;12.09;59.58
48926;BME280;39838;59.938;30.642;2023-05-21T02:37:32;102155.69;;;12.13;59.60
48926;BME280;39838;59.938;30.642;2023-05-21T02:40:00;102145.31;;;12.18;59.73
48926;BME280;39838;59.938;30.642;2023-05-21T02:42:33;102147.13;;;12.20;59.64
48926;BME280;39838;59.938;30.642;2023-05-21T02:45:06;102143.66;;;12.20;59.55
48926;BME280;39838;59.938;30.642;2023-05-21T02:47:34;102143.75;;;12.26;59.60
48926;BME280;39838;59.938;30.642;2023-05-21T02:50:01;102149.94;;;12.31;59.54
48926;BME280;39838;59.938;30.642;2023-05-21T02:52:31;102151.78;;;12.37;59.09
48926;BME280;39838;59.938;30.642;2023-05-21T02:54:58;102159.75;;;12.44;59.19
48926;BME280;39838;59.938;30.642;2023-05-21T02:57:25;102165.09;;;12.52;58.63
48926;BME280;39838;59.938;30.642;2023-05-21T02:59:52;102172.22;;;12.61;58.42
48926;BME280;39838;59.938;30.642;2023-05-21T03:02:22;102163.66;;;12.68;58.36
48926;BME280;39838;59.938;30.642;2023-05-21T03:04:49;102163.81;;;12.77;58.45
48926;BME280;39838;59.938;30.642;2023-05-21T03:07:17;102159.56;;;12.82;58.42
48926;BME280;39838;59.938;30.642;2023-05-21T03:09:45;102156.22;;;12.91;58.17
48926;BME280;39838;59.938;30.642;2023-05-21T03:12:12;102162.44;;;12.99;58.17
48926;BME280;39838;59.938;30.642;2023-05-21T03:14:40;102165.16;;;13.06;57.66
48926;BME280;39838;59.938;30.642;2023-05-21T03:17:08;102163.53;;;13.13;57.75
48926;BME280;39838;59.938;30.642;2023-05-21T03:19:40;102168.88;;;13.21;57.58
48926;BME280;39838;59.938;30.642;2023-05-21T03:22:08;102165.56;;;13.29;57.61
48926;BME280;39838;59.938;30.642;2023-05-21T03:24:36;102163.06;;;13.37;57.12
48926;BME280;39838;59.938;30.642;2023-05-21T03:27:04;102170.16;;;13.46;57.11
48926;BME280;39838;59.938;30.642;2023-05-21T03:29:32;102162.41;;;13.52;56.28
48926;BME280;39838;59.938;30.642;2023-05-21T03:32:00;102166.88;;;13.60;56.63
48926;BME280;39838;59.938;30.642;2023-05-21T03:34:27;102166.16;;;13.69;57.40
48926;BME280;39838;59.938;30.642;2023-05-21T03:36:56;102166.25;;;13.77;56.91
48926;BME280;39838;59.938;30.642;2023-05-21T03:39:23;102166.31;;;13.83;56.85
48926;BME280;39838;59.938;30.642;2023-05-21T03:41:51;102166.38;;;13.87;56.35
48926;BME280;39838;59.938;30.642;2023-05-21T03:44:18;102161.22;;;13.92;56.27
48926;BME280;39838;59.938;30.642;2023-05-21T03:46:45;102156.06;;;13.98;56.18
48926;BME280;39838;59.938;30.642;2023-05-21T03:49:13;102157.88;;;14.04;56.52
48926;BME280;39838;59.938;30.642;2023-05-21T03:51:40;102157.00;;;14.03;56.70
48926;BME280;39838;59.938;30.642;2023-05-21T03:54:08;102149.97;;;14.01;57.65
48926;BME280;39838;59.938;30.642;2023-05-21T03:56:36;102156.13;;;14.04;57.37
48926;BME280;39838;59.938;30.642;2023-05-21T03:59:03;102161.47;;;14.13;57.22
48926;BME280;39838;59.938;30.642;2023-05-21T04:01:30;102148.47;;;14.21;56.38
48926;BME280;39838;59.938;30.642;2023-05-21T04:03:58;102155.56;;;14.30;56.30
48926;BME280;39838;59.938;30.642;2023-05-21T04:06:26;102157.41;;;14.40;55.94
48926;BME280;39838;59.938;30.642;2023-05-21T04:08:55;102147.06;;;14.49;55.49
48926;BME280;39838;59.938;30.642;2023-05-21T04:11:23;102140.03;;;14.45;55.79
48926;BME280;39838;59.938;30.642;2023-05-21T04:13:51;102150.72;;;14.66;55.70
48926;BME280;39838;59.938;30.642;2023-05-21T04:16:18;102160.31;;;14.69;54.47
48926;BME280;39838;59.938;30.642;2023-05-21T04:18:46;102156.03;;;14.75;54.26
48926;BME280;39838;59.938;30.642;2023-05-21T04:21:13;102154.38;;;14.84;54.09
48926;BME280;39838;59.938;30.642;2023-05-21T04:23:41;102156.16;;;14.89;53.68
48926;BME280;39838;59.938;30.642;2023-05-21T04:26:08;102157.94;;;14.96;53.51
48926;BME280;39838;59.938;30.642;2023-05-21T04:28:38;102152.75;;;14.99;51.53
48926;BME280;39838;59.938;30.642;2023-05-21T04:31:06;102158.91;;;15.06;51.83
48926;BME280;39838;59.938;30.642;2023-05-21T04:33:34;102152.00;;;15.16;50.88
48926;BME280;39838;59.938;30.642;2023-05-21T04:36:02;102148.59;;;15.26;50.93
48926;BME280;39838;59.938;30.642;2023-05-21T04:38:29;102160.84;;;15.33;51.82
48926;BME280;39838;59.938;30.642;2023-05-21T04:40:56;102150.41;;;15.38;51.30
48926;BME280;39838;59.938;30.642;2023-05-21T04:43:28;102152.22;;;15.45;50.98
48926;BME280;39838;59.938;30.642;2023-05-21T04:45:58;102154.00;;;15.53;51.11
48926;BME280;39838;59.938;30.642;2023-05-21T04:48:26;102147.09;;;15.62;50.79
48926;BME280;39838;59.938;30.642;2023-05-21T04:50:53;102141.88;;;15.68;49.91
48926;BME280;39838;59.938;30.642;2023-05-21T04:53:21;102146.28;;;15.72;49.93
48926;BME280;39838;59.938;30.642;2023-05-21T04:55:50;102144.56;;;15.78;49.41
48926;BME280;39838;59.938;30.642;2023-05-21T04:58:17;102140.19;;;15.83;48.73
48926;BME280;39838;59.938;30.642;2023-05-21T05:00:45;102145.50;;;15.94;50.29
48926;BME280;39838;59.938;30.642;2023-05-21T05:03:17;102139.41;;;16.00;48.05
48926;BME280;39838;59.938;30.642;2023-05-21T05:05:44;102135.03;;;16.00;47.27
48926;BME280;39838;59.938;30.642;2023-05-21T05:08:12;102146.41;;;16.07;48.34
48926;BME280;39838;59.938;30.642;2023-05-21T05:10:39;102138.56;;;16.18;50.05
48926;BME280;39838;59.938;30.642;2023-05-21T05:13:06;102135.97;;;16.31;51.51
48926;BME280;39838;59.938;30.642;2023-05-21T05:15:34;102139.50;;;16.43;51.37
48926;BME280;39838;59.938;30.642;2023-05-21T05:18:01;102135.16;;;16.49;50.77
48926;BME280;39838;59.938;30.642;2023-05-21T05:20:30;102131.66;;;16.55;50.39
48926;BME280;39838;59.938;30.642;2023-05-21T05:22:57;102126.44;;;16.61;49.88
48926;BME280;39838;59.938;30.642;2023-05-21T05:25:25;102136.94;;;16.72;49.20
48926;BME280;39838;59.938;30.642;2023-05-21T05:27:53;102132.56;;;16.78;48.94
48926;BME280;39838;59.938;30.642;2023-05-21T05:30:20;102136.06;;;16.86;48.94
48926;BME280;39838;59.938;30.642;2023-05-21T05:32:47;102134.31;;;16.93;47.92
48926;BME280;39838;59.938;30.642;2023-05-21T05:35:15;102136.06;;;17.02;47.61
48926;BME280;39838;59.938;30.642;2023-05-21T05:37:43;102126.44;;;17.02;47.11
48926;BME280;39838;59.938;30.642;2023-05-21T05:40:11;102131.66;;;17.13;46.86
48926;BME280;39838;59.938;30.642;2023-05-21T05:42:38;102127.31;;;17.16;45.84
48926;BME280;39838;59.938;30.642;2023-05-21T05:45:06;102127.28;;;17.24;45.39
48926;BME280;39838;59.938;30.642;2023-05-21T05:47:34;102129.03;;;17.34;44.97
48926;BME280;39838;59.938;30.642;2023-05-21T05:50:01;102127.22;;;17.45;45.03
48926;BME280;39838;59.938;30.642;2023-05-21T05:52:30;102121.94;;;17.58;45.02
48926;BME280;39838;59.938;30.642;2023-05-21T05:54:59;102119.31;;;17.64;45.13
48926;BME280;39838;59.938;30.642;2023-05-21T05:57:26;102119.28;;;17.70;44.82
48926;BME280;39838;59.938;30.642;2023-05-21T05:59:53;102123.66;;;17.74;44.54
48926;BME280;39838;59.938;30.642;2023-05-21T06:02:20;102118.41;;;17.76;43.65
48926;BME280;39838;59.938;30.642;2023-05-21T06:04:48;102119.28;;;17.82;43.42
48926;BME280;39838;59.938;30.642;2023-05-21T06:07:15;102120.09;;;17.90;43.13
48926;BME280;39838;59.938;30.642;2023-05-21T06:09:43;102123.53;;;18.01;43.00
48926;BME280;39838;59.938;30.642;2023-05-21T06:12:12;102122.66;;;18.06;42.50
48926;BME280;39838;59.938;30.642;2023-05-21T06:14:40;102111.25;;;18.07;41.27
48926;BME280;39838;59.938;30.642;2023-05-21T06:17:08;102118.19;;;18.20;41.31
48926;BME280;39838;59.938;30.642;2023-05-21T06:19:35;102112.03;;;18.22;40.52
48926;BME280;39838;59.938;30.642;2023-05-21T06:22:02;102115.50;;;18.31;40.59
48926;BME280;39838;59.938;30.642;2023-05-21T06:24:29;102113.66;;;18.42;41.03
48926;BME280;39838;59.938;30.642;2023-05-21T06:26:57;102094.34;;;18.41;40.68
48926;BME280;39838;59.938;30.642;2023-05-21T06:29:25;102113.53;;;18.55;40.24
48926;BME280;39838;59.938;30.642;2023-05-21T06:31:53;102112.66;;;18.58;39.58
48926;BME280;39838;59.938;30.642;2023-05-21T06:34:20;102110.88;;;18.62;39.53
48926;BME280;39838;59.938;30.642;2023-05-21T06:36:47;102100.38;;;18.59;39.25
48926;BME280;39838;59.938;30.642;2023-05-21T06:39:15;102103.84;;;18.70;39.12
48926;BME280;39838;59.938;30.642;2023-05-21T06:41:42;102109.91;;;18.78;39.41
48926;BME280;39838;59.938;30.642;2023-05-21T06:44:09;102103.75;;;18.79;38.95
48926;BME280;39838;59.938;30.642;2023-05-21T06:46:38;102105.50;;;18.78;38.47
48926;BME280;39838;59.938;30.642;2023-05-21T06:49:05;102104.59;;;18.81;38.39
48926;BME280;39838;59.938;30.642;2023-05-21T06:51:33;102105.41;;;18.89;37.60
48926;BME280;39838;59.938;30.642;2023-05-21T06:54:00;102096.69;;;18.84;37.60
48926;BME280;39838;59.938;30.642;2023-05-21T06:56:27;102090.50;;;18.87;37.84
48926;BME280;39838;59.938;30.642;2023-05-21T06:58:55;102093.91;;;18.96;37.28
48926;BME280;39838;59.938;30.642;2023-05-21T07:01:22;102093.84;;;19.05;36.93
48926;BME280;39838;59.938;30.642;2023-05-21T07:03:51;102092.91;;;19.13;37.01
48926;BME280;39838;59.938;30.642;2023-05-21T07:06:19;102079.59;;;19.23;36.90
48926;BME280;39838;59.938;30.642;2023-05-21T07:08:46;102091.81;;;19.32;36.73
48926;BME280;39838;59.938;30.642;2023-05-21T07:11:14;102084.72;;;19.35;36.39
48926;BME280;39838;59.938;30.642;2023-05-21T07:13:42;102085.59;;;19.36;36.42
48926;BME280;39838;59.938;30.642;2023-05-21T07:16:09;102089.13;;;19.35;36.06
48926;BME280;39838;59.938;30.642;2023-05-21T07:18:36;102076.06;;;19.26;35.81
48926;BME280;39838;59.938;30.642;2023-05-21T07:21:05;102082.31;;;19.19;35.73
48926;BME280;39838;59.938;30.642;2023-05-21T07:23:32;102077.00;;;19.20;36.14
48926;BME280;39838;59.938;30.642;2023-05-21T07:26:00;102080.56;;;19.16;36.43
48926;BME280;39838;59.938;30.642;2023-05-21T07:28:27;102069.13;;;19.16;36.49
48926;BME280;39838;59.938;30.642;2023-05-21T07:30:54;102079.69;;;19.16;36.65
48926;BME280;39838;59.938;30.642;2023-05-21T07:33:21;102069.16;;;19.17;36.29
48926;BME280;39838;59.938;30.642;2023-05-21T07:35:49;102068.16;;;19.26;36.01
48926;BME280;39838;59.938;30.642;2023-05-21T07:38:17;102070.72;;;19.33;35.87
48926;BME280;39838;59.938;30.642;2023-05-21T07:40:45;102042.75;;;19.20;35.79
48926;BME280;39838;59.938;30.642;2023-05-21T07:43:12;102066.44;;;19.25;35.46
48926;BME280;39838;59.938;30.642;2023-05-21T07:45:39;102053.34;;;19.16;36.16
48926;BME280;39838;59.938;30.642;2023-05-21T07:48:07;102052.56;;;19.07;36.33
48926;BME280;39838;59.938;30.642;2023-05-21T07:50:34;102055.16;;;19.09;35.64
48926;BME280;39838;59.938;30.642;2023-05-21T07:53:02;102054.22;;;19.15;36.28
48926;BME280;39838;59.938;30.642;2023-05-21T07:55:31;102052.34;;;19.27;35.77
48926;BME280;39838;59.938;30.642;2023-05-21T07:57:58;102052.16;;;19.44;35.48
48926;BME280;39838;59.938;30.642;2023-05-21T08:00:26;102056.53;;;19.44;35.82
48926;BME280;39838;59.938;30.642;2023-05-21T08:02:53;102053.88;;;19.45;35.80
48926;BME280;39838;59.938;30.642;2023-05-21T08:05:21;102060.06;;;19.41;35.62
48926;BME280;39838;59.938;30.642;2023-05-21T08:07:49;102054.91;;;19.33;35.99
48926;BME280;39838;59.938;30.642;2023-05-21T08:10:16;102072.47;;;19.33;36.47
48926;BME280;39838;59.938;30.642;2023-05-21T08:12:45;102061.09;;;19.31;36.46
48926;BME280;39838;59.938;30.642;2023-05-21T08:15:12;102054.03;;;19.33;36.27
48926;BME280;39838;59.938;30.642;2023-05-21T08:17:40;102052.25;;;19.35;36.06
48926;BME280;39838;59.938;30.642;2023-05-21T08:20:08;102068.03;;;19.38;36.42
48926;BME280;39838;59.938;30.642;2023-05-21T08:22:35;102059.22;;;19.39;36.56
48926;BME280;39838;59.938;30.642;2023-05-21T08:25:03;102061.88;;;19.39;36.28
48926;BME280;39838;59.938;30.642;2023-05-21T08:27:30;102052.03;;;19.50;35.73
48926;BME280;39838;59.938;30.642;2023-05-21T08:29:59;102060.66;;;19.68;35.69
48926;BME280;39838;59.938;30.642;2023-05-21T08:32:26;102053.28;;;19.91;35.21
48926;BME280;39838;59.938;30.642;2023-05-21T08:34:54;102047.78;;;20.08;35.21
48926;BME280;39838;59.938;30.642;2023-05-21T08:37:22;102045.84;;;20.21;34.53
48926;BME280;39838;59.938;30.642;2023-05-21T08:39:49;102048.19;;;20.37;34.33
48926;BME280;39838;59.938;30.642;2023-05-21T08:42:24;102047.97;;;20.54;34.25
48926;BME280;39838;59.938;30.642;2023-05-21T08:44:55;102042.38;;;20.71;33.84
48926;BME280;39838;59.938;30.642;2023-05-21T08:47:31;102036.84;;;20.86;33.88
48926;BME280;39838;59.938;30.642;2023-05-21T08:50:02;102029.53;;;20.99;33.06
48926;BME280;39838;59.938;30.642;2023-05-21T08:52:30;102044.25;;;21.12;33.15
48926;BME280;39838;59.938;30.642;2023-05-21T08:54:58;102044.09;;;21.21;32.74
48926;BME280;39838;59.938;30.642;2023-05-21T08:57:26;102031.91;;;21.14;32.45
48926;BME280;39838;59.938;30.642;2023-05-21T08:59:54;102031.81;;;21.17;32.66
48926;BME280;39838;59.938;30.642;2023-05-21T09:02:21;102027.28;;;21.24;32.93
48926;BME280;39838;59.938;30.642;2023-05-21T09:04:52;102031.41;;;21.39;32.48
48926;BME280;39838;59.938;30.642;2023-05-21T09:07:24;102023.19;;;21.54;32.00
48926;BME280;39838;59.938;30.642;2023-05-21T09:09:55;102019.50;;;21.61;32.10
48926;BME280;39838;59.938;30.642;2023-05-21T09:12:23;102026.25;;;21.74;31.86
48926;BME280;39838;59.938;30.642;2023-05-21T09:14:50;102021.09;;;21.67;31.82
48926;BME280;39838;59.938;30.642;2023-05-21T09:17:18;102023.13;;;21.56;31.54
48926;BME280;39838;59.938;30.642;2023-05-21T09:20:07;102004.06;;;21.40;31.71
48926;BME280;39838;59.938;30.642;2023-05-21T09:22:39;102007.63;;;21.39;31.69
48926;BME280;39838;59.938;30.642;2023-05-21T09:25:08;102013.31;;;21.17;31.80
48926;BME280;39838;59.938;30.642;2023-05-21T09:27:36;102017.19;;;21.01;32.24
48926;BME280;39838;59.938;30.642;2023-05-21T09:30:08;102014.84;;;20.84;31.80
48926;BME280;39838;59.938;30.642;2023-05-21T09:32:36;101995.63;;;20.76;31.87
48926;BME280;39838;59.938;30.642;2023-05-21T09:35:09;102002.72;;;20.72;31.90
48926;BME280;39838;59.938;30.642;2023-05-21T09:37:37;102003.44;;;20.82;32.65
48926;BME280;39838;59.938;30.642;2023-05-21T09:40:12;102008.84;;;20.76;32.18
48926;BME280;39838;59.938;30.642;2023-05-21T09:42:41;101987.31;;;20.50;32.42
48926;BME280;39838;59.938;30.642;2023-05-21T09:45:09;101999.47;;;20.58;32.48
48926;BME280;39838;59.938;30.642;2023-05-21T09:47:40;101996.72;;;20.64;32.45
48926;BME280;39838;59.938;30.642;2023-05-21T09:50:11;101996.56;;;20.72;31.89
48926;BME280;39838;59.938;30.642;2023-05-21T09:52:38;101994.69;;;20.79;31.84
48926;BME280;39838;59.938;30.642;2023-05-21T09:55:09;102000.84;;;20.79;31.94
48926;BME280;39838;59.938;30.642;2023-05-21T09:57:41;101996.50;;;20.77;32.10
48926;BME280;39838;59.938;30.642;2023-05-21T10:00:15;101987.63;;;20.79;31.98
48926;BME280;39838;59.938;30.642;2023-05-21T10:02:44;101997.28;;;20.82;32.02
48926;BME280;39838;59.938;30.642;2023-05-21T10:05:13;101975.38;;;20.77;31.67
48926;BME280;39838;59.938;30.642;2023-05-21T10:07:44;101983.19;;;20.83;31.73
48926;BME280;39838;59.938;30.642;2023-05-21T10:10:13;101987.63;;;20.81;31.88
48926;BME280;39838;59.938;30.642;2023-05-21T10:12:43;101989.53;;;20.74;32.11
48926;BME280;39838;59.938;30.642;2023-05-21T10:15:13;101968.53;;;20.66;31.93
48926;BME280;39838;59.938;30.642;2023-05-21T10:17:42;101977.09;;;20.78;31.65
48926;BME280;39838;59.938;30.642;2023-05-21T10:20:12;101975.19;;;20.86;31.80
48926;BME280;39838;59.938;30.642;2023-05-21T10:22:40;101975.09;;;20.90;31.77
48926;BME280;39838;59.938;30.642;2023-05-21T10:25:08;101974.19;;;20.91;32.22
48926;BME280;39838;59.938;30.642;2023-05-21T10:27:36;101978.63;;;20.91;31.84
48926;BME280;39838;59.938;30.642;2023-05-21T10:30:05;101961.16;;;20.84;31.75
48926;BME280;39838;59.938;30.642;2023-05-21T10:32:33;101959.47;;;20.80;32.02
48926;BME280;39838;59.938;30.642;2023-05-21T10:35:01;101964.81;;;20.77;32.22
48926;BME280;39838;59.938;30.642;2023-05-21T10:37:34;101968.44;;;20.71;31.92
48926;BME280;39838;59.938;30.642;2023-05-21T10:40:03;101960.66;;;20.63;31.84
48926;BME280;39838;59.938;30.642;2023-05-21T10:45:55;101945.72;;;20.62;32.16
48926;BME280;39838;59.938;30.642;2023-05-21T10:48:37;101940.72;;;20.45;32.07
48926;BME280;39838;59.938;30.642;2023-05-21T10:51:17;101935.47;;;20.44;32.18
48926;BME280;39838;59.938;30.642;2023-05-21T10:54:05;101955.44;;;20.59;32.44
48926;BME280;39838;59.938;30.642;2023-05-21T10:56:40;101949.16;;;20.67;32.41
48926;BME280;39838;59.938;30.642;2023-05-21T10:59:14;101956.84;;;20.80;32.33
48926;BME280;39838;59.938;30.642;2023-05-21T11:01:48;101940.84;;;20.86;31.98
48926;BME280;39838;59.938;30.642;2023-05-21T11:04:21;101940.88;;;20.84;32.21
48926;BME280;39838;59.938;30.642;2023-05-21T11:06:48;101947.63;;;20.99;31.65
48926;BME280;39838;59.938;30.642;2023-05-21T11:09:17;101952.97;;;20.96;31.69
48926;BME280;39838;59.938;30.642;2023-05-21T11:11:48;101946.19;;;20.83;31.80
48926;BME280;39838;59.938;30.642;2023-05-21T11:14:30;101943.72;;;20.75;32.17
48926;BME280;39838;59.938;30.642;2023-05-21T11:17:00;101945.25;;;20.87;32.01
48926;BME280;39838;59.938;30.642;2023-05-21T11:19:36;101927.72;;;20.83;31.89
48926;BME280;39838;59.938;30.642;2023-05-21T11:22:08;101942.34;;;20.99;32.04
48926;BME280;39838;59.938;30.642;2023-05-21T11:24:39;101924.75;;;20.98;31.25
48926;BME280;39838;59.938;30.642;2023-05-21T11:27:07;101934.50;;;20.96;31.81
48926;BME280;39838;59.938;30.642;2023-05-21T11:29:42;101929.41;;;20.85;31.34
48926;BME280;39838;59.938;30.642;2023-05-21T11:32:11;101918.19;;;20.76;31.45
48926;BME280;39838;59.938;30.642;2023-05-21T11:34:41;101933.00;;;20.83;31.55
48926;BME280;39838;59.938;30.642;2023-05-21T11:37:32;101919.19;;;20.68;31.70
48926;BME280;39838;59.938;30.642;2023-05-21T11:40:19;101908.16;;;20.48;31.90
48926;BME280;39838;59.938;30.642;2023-05-21T11:42:49;101911.66;;;20.49;32.06
48926;BME280;39838;59.938;30.642;2023-05-21T11:45:17;101907.31;;;20.44;32.27
48926;BME280;39838;59.938;30.642;2023-05-21T11:47:46;101923.81;;;20.57;32.09
48926;BME280;39838;59.938;30.642;2023-05-21T11:50:14;101912.34;;;20.60;31.99
48926;BME280;39838;59.938;30.642;2023-05-21T11:52:42;101926.34;;;20.63;32.01
48926;BME280;39838;59.938;30.642;2023-05-21T11:55:10;101906.22;;;20.56;31.62
48926;BME280;39838;59.938;30.642;2023-05-21T11:57:41;101912.56;;;20.48;31.72
48926;BME280;39838;59.938;30.642;2023-05-21T12:00:14;101898.53;;;20.42;31.96
48926;BME280;39838;59.938;30.642;2023-05-21T12:02:46;101908.19;;;20.45;31.85
48926;BME280;39838;59.938;30.642;2023-05-21T12:05:14;101911.50;;;20.56;31.87
48926;BME280;39838;59.938;30.642;2023-05-21T12:07:41;101914.94;;;20.61;32.22
48926;BME280;39838;59.938;30.642;2023-05-21T12:10:09;101927.03;;;20.73;32.24
48926;BME280;39838;59.938;30.642;2023-05-21T12:12:38;101915.03;;;21.00;32.57
48926;BME280;39838;59.938;30.642;2023-05-21T12:15:06;101905.47;;;21.36;32.37
48926;BME280;39838;59.938;30.642;2023-05-21T12:17:35;101908.63;;;21.88;31.65
48926;BME280;39838;59.938;30.642;2023-05-21T12:20:02;101903.94;;;22.34;31.49
48926;BME280;39838;59.938;30.642;2023-05-21T12:22:32;101909.06;;;23.04;30.87
48926;BME280;39838;59.938;30.642;2023-05-21T12:25:00;101898.41;;;23.63;29.74
48926;BME280;39838;59.938;30.642;2023-05-21T12:27:28;101901.69;;;24.23;28.75
48926;BME280;39838;59.938;30.642;2023-05-21T12:29:57;101893.91;;;24.68;28.44
48926;BME280;39838;59.938;30.642;2023-05-21T12:32:26;101901.84;;;25.17;27.84
48926;BME280;39838;59.938;30.642;2023-05-21T12:34:55;101909.91;;;25.37;27.45
48926;BME280;39838;59.938;30.642;2023-05-21T12:37:23;101902.13;;;25.54;26.94
48926;BME280;39838;59.938;30.642;2023-05-21T12:39:52;101914.59;;;25.76;26.68
48926;BME280;39838;59.938;30.642;2023-05-21T12:42:24;101911.16;;;25.94;26.57
48926;BME280;39838;59.938;30.642;2023-05-21T12:44:52;101905.91;;;26.13;26.09
48926;BME280;39838;59.938;30.642;2023-05-21T12:47:24;101897.13;;;26.31;25.84
48926;BME280;39838;59.938;30.642;2023-05-21T12:49:53;101901.69;;;26.50;26.04
48926;BME280;39838;59.938;30.642;2023-05-21T12:52:23;101907.97;;;26.67;25.88